Time;durP1;ratioP1;P1;durP2;ratioP2;P2;SDS_P1;SDS_P2;PMS_P1;PMS_P2;Temp;Humidity;BMP_temperature;BMP_pressure;BME280_temperature;BME280_humidity;BME280_pressure;Samples;Min_cycle;Max_cycle;Signal;HPM_P1;HPM_P2
2023/04/23 00:02:12;;;;;;;47.55;37.70;;;29.80;74.90;;;;;;1848227;76;21641;-84
2023/04/23 00:04:45;;;;;;;48.52;37.33;;;29.80;74.70;;;;;;1851815;76;21109;-85
2023/04/23 00:07:18;;;;;;;48.35;36.10;;;29.80;74.80;;;;;;1855383;76;21157;-85
2023/04/23 00:09:51;;;;;;;47.10;37.40;;;29.90;74.70;;;;;;1852104;76;21206;-82
2023/04/23 00:12:23;;;;;;;48.55;37.10;;;29.90;74.40;;;;;;1818731;77;21142;-83
2023/04/23 00:14:54;;;;;;;43.13;37.15;;;29.90;75.10;;;;;;1801352;78;21172;-83
2023/04/23 00:17:25;;;;;;;47.93;36.55;;;29.90;74.50;;;;;;1851288;76;21182;-84
2023/04/23 00:19:56;;;;;;;49.03;36.03;;;29.90;74.50;;;;;;1847649;76;21200;-84
2023/04/23 00:22:27;;;;;;;46.68;37.23;;;30.00;74.30;;;;;;1856000;76;21151;-83
2023/04/23 00:24:58;;;;;;;47.20;36.68;;;30.00;74.10;;;;;;1847416;76;21210;-83
2023/04/23 00:27:29;;;;;;;46.77;37.48;;;30.00;73.90;;;;;;1814994;79;21252;-84
2023/04/23 00:30:02;;;;;;;49.15;38.15;;;30.00;73.90;;;;;;1802805;78;21165;-84
2023/04/23 00:32:33;;;;;;;46.02;36.40;;;30.00;73.40;;;;;;1845729;76;21134;-85
2023/04/23 00:35:05;;;;;;;48.58;36.13;;;30.10;73.40;;;;;;1824628;77;21183;-84
2023/04/23 00:37:36;;;;;;;47.38;37.35;;;30.10;73.50;;;;;;1852030;76;21129;-85
2023/04/23 00:40:09;;;;;;;48.00;37.35;;;30.10;73.00;;;;;;1824228;77;21138;-84
2023/04/23 00:42:40;;;;;;;44.35;37.25;;;30.20;73.40;;;;;;1805267;78;21176;-84
2023/04/23 00:45:12;;;;;;;50.88;38.63;;;30.20;73.50;;;;;;1846827;76;21125;-85
2023/04/23 00:47:43;;;;;;;47.13;36.73;;;30.30;73.40;;;;;;1822120;77;21626;-85
2023/04/23 00:50:15;;;;;;;46.83;37.05;;;30.30;73.10;;;;;;1849720;77;21657;-84
2023/04/23 00:52:46;;;;;;;47.10;35.73;;;30.40;72.90;;;;;;1851668;76;21162;-85
2023/04/23 00:55:19;;;;;;;43.50;36.45;;;30.40;73.10;;;;;;1856125;76;21639;-84
2023/04/23 00:57:50;;;;;;;42.78;36.28;;;30.50;72.90;;;;;;1851130;76;21744;-85
2023/04/23 01:00:21;;;;;;;48.75;38.78;;;30.50;72.80;;;;;;1851538;76;21175;-84
2023/04/23 01:02:53;;;;;;;51.48;38.53;;;30.60;72.80;;;;;;1848388;77;21095;-85
2023/04/23 01:05:24;;;;;;;44.23;36.85;;;30.60;72.60;;;;;;1857369;76;21553;-86
2023/04/23 01:07:56;;;;;;;45.30;36.80;;;30.70;72.70;;;;;;1854266;77;21122;-85
2023/04/23 01:10:27;;;;;;;47.05;37.85;;;30.70;72.60;;;;;;1860608;74;21162;-85
2023/04/23 01:12:58;;;;;;;59.90;41.83;;;30.70;72.20;;;;;;1860820;75;21068;-85
2023/04/23 01:15:29;;;;;;;46.98;38.08;;;30.80;72.40;;;;;;1862506;76;21200;-85
2023/04/23 01:18:00;;;;;;;52.10;36.98;;;30.90;71.90;;;;;;1862701;75;21622;-85
2023/04/23 01:20:32;;;;;;;42.83;36.30;;;30.90;71.70;;;;;;1858385;76;21185;-85
2023/04/23 01:23:07;;;;;;;46.92;35.55;;;30.90;71.40;;;;;;1859495;76;21162;-85
2023/04/23 01:25:38;;;;;;;41.80;34.67;;;30.90;71.00;;;;;;1857520;76;21138;-86
2023/04/23 01:28:09;;;;;;;45.83;36.75;;;31.00;70.80;;;;;;1854196;76;21267;-87
2023/04/23 01:30:43;;;;;;;43.20;35.95;;;31.10;70.40;;;;;;1847074;76;21138;-85
2023/04/23 01:33:14;;;;;;;42.50;35.40;;;31.10;70.50;;;;;;1853371;76;21114;-85
2023/04/23 01:35:48;;;;;;;47.50;37.08;;;31.20;70.50;;;;;;1862954;74;21837;-85
2023/04/23 01:38:21;;;;;;;47.15;38.38;;;31.30;70.80;;;;;;1878594;75;21248;-86
2023/04/23 01:40:53;;;;;;;43.75;37.42;;;31.30;72.10;;;;;;1877311;75;21213;-86
2023/04/23 01:43:24;;;;;;;49.75;40.58;;;31.40;72.90;;;;;;1861927;76;21189;-84
2023/04/23 01:45:55;;;;;;;58.90;44.80;;;31.40;73.30;;;;;;1865964;75;21119;-85
2023/04/23 01:48:27;;;;;;;50.70;40.73;;;31.40;73.40;;;;;;1859242;75;21194;-85
2023/04/23 01:50:58;;;;;;;52.85;42.50;;;31.50;73.40;;;;;;1860514;77;21158;-85
2023/04/23 01:53:29;;;;;;;55.12;41.15;;;31.50;73.80;;;;;;1854252;75;21114;-88
2023/04/23 01:56:02;;;;;;;50.92;41.30;;;31.60;74.00;;;;;;1856295;75;21597;-85
2023/04/23 01:58:36;;;;;;;54.40;41.42;;;31.60;73.20;;;;;;1849191;77;21111;-87
2023/04/23 02:01:22;;;;;;;49.18;38.20;;;31.60;73.30;;;;;;1855861;77;21629;-86
2023/04/23 02:03:59;;;;;;;41.90;35.43;;;31.70;71.40;;;;;;1858986;77;21103;-86
2023/04/23 02:06:30;;;;;;;41.73;35.75;;;31.80;69.90;;;;;;1838831;77;21173;-85
2023/04/23 02:08:59;;;;;;;46.40;38.88;;;31.90;69.60;;;;;;1852082;77;21134;-84
2023/04/23 02:11:30;;;;;;;47.30;36.15;;;31.90;69.90;;;;;;1851541;77;21624;-86
2023/04/23 02:14:02;;;;;;;52.62;38.58;;;32.00;70.20;;;;;;1851022;77;21088;-84
2023/04/23 02:16:36;;;;;;;45.98;37.67;;;32.00;70.60;;;;;;1856309;75;21051;-86
2023/04/23 02:19:07;;;;;;;50.98;36.80;;;32.10;69.80;;;;;;1856115;77;21139;-85
2023/04/23 02:21:38;;;;;;;49.60;37.50;;;32.20;69.60;;;;;;1849131;77;21774;-85
2023/04/23 02:24:09;;;;;;;49.65;38.05;;;32.40;68.70;;;;;;1855225;76;21223;-84
2023/04/23 02:26:40;;;;;;;49.70;38.98;;;32.40;68.20;;;;;;1858283;77;21241;-85
2023/04/23 02:29:11;;;;;;;44.08;38.30;;;32.50;67.90;;;;;;1813705;78;21101;-86
2023/04/23 02:31:42;;;;;;;40.98;35.83;;;32.60;66.60;;;;;;1876165;76;21173;-85
2023/04/23 02:34:13;;;;;;;44.00;35.63;;;32.60;66.30;;;;;;1854048;77;21696;-84
2023/04/23 02:36:44;;;;;;;52.48;39.53;;;32.60;67.20;;;;;;1870482;76;21225;-84
2023/04/23 02:39:15;;;;;;;49.55;38.48;;;32.70;68.30;;;;;;1856321;77;21149;-85
2023/04/23 02:41:46;;;;;;;45.92;38.02;;;32.80;68.30;;;;;;1852103;77;21607;-84
2023/04/23 02:44:17;;;;;;;43.45;36.88;;;33.00;67.90;;;;;;1855651;76;21108;-84
2023/04/23 02:46:48;;;;;;;46.45;38.20;;;33.10;66.90;;;;;;1847539;77;21110;-86
2023/04/23 02:49:19;;;;;;;46.77;36.50;;;33.20;65.80;;;;;;1848446;76;21133;-85
2023/04/23 02:51:50;;;;;;;45.23;38.53;;;33.30;65.90;;;;;;1851694;77;21228;-87
2023/04/23 02:54:22;;;;;;;49.93;37.33;;;33.40;65.40;;;;;;1853453;77;21174;-87
2023/04/23 02:56:53;;;;;;;48.98;39.13;;;33.40;65.30;;;;;;1849538;77;21141;-85
2023/04/23 02:59:24;;;;;;;51.58;38.73;;;33.50;65.10;;;;;;1853401;77;21087;-86
2023/04/23 03:01:55;;;;;;;47.13;37.78;;;33.60;64.90;;;;;;1855635;77;21153;-85
2023/04/23 03:04:26;;;;;;;43.17;37.50;;;33.60;64.60;;;;;;1853888;77;21123;-85
2023/04/23 03:06:57;;;;;;;57.05;39.08;;;33.80;64.70;;;;;;1853892;76;21122;-85
2023/04/23 03:09:28;;;;;;;55.15;40.23;;;33.90;64.20;;;;;;1850122;77;21135;-85
2023/04/23 03:12:00;;;;;;;43.98;37.50;;;34.00;63.70;;;;;;1850757;77;21197;-87
2023/04/23 03:14:31;;;;;;;50.70;38.63;;;34.00;62.70;;;;;;1854399;77;21158;-85
2023/04/23 03:17:02;;;;;;;42.43;36.15;;;34.10;63.20;;;;;;1851919;77;21058;-85
2023/04/23 03:19:33;;;;;;;44.77;38.02;;;34.20;62.60;;;;;;1848915;77;21142;-86
2023/04/23 03:22:04;;;;;;;46.45;36.38;;;34.20;62.00;;;;;;1854765;76;21660;-86
2023/04/23 03:24:36;;;;;;;46.30;38.35;;;34.30;62.50;;;;;;1851178;77;21168;-85
2023/04/23 03:27:07;;;;;;;43.73;37.80;;;34.30;62.50;;;;;;1843615;77;21247;-85
2023/04/23 03:29:38;;;;;;;45.88;39.25;;;34.40;62.00;;;;;;1850839;76;21197;-85
2023/04/23 03:32:09;;;;;;;43.58;37.53;;;34.50;62.00;;;;;;1854739;76;21137;-86
2023/04/23 03:34:39;;;;;;;45.52;38.33;;;;;;;;;;1846897;76;21130;-85
2023/04/23 03:37:11;;;;;;;42.93;37.88;;;34.70;60.80;;;;;;1823817;76;21167;-85
2023/04/23 03:39:42;;;;;;;44.10;37.83;;;34.70;61.70;;;;;;1847681;76;21110;-85
2023/04/23 03:42:13;;;;;;;46.20;38.30;;;34.80;61.30;;;;;;1851064;76;21118;-85
2023/04/23 03:44:44;;;;;;;48.17;40.20;;;34.80;61.50;;;;;;1845060;76;21096;-85
2023/04/23 03:47:16;;;;;;;47.17;37.90;;;34.90;61.30;;;;;;1866797;76;21090;-85
2023/04/23 03:49:47;;;;;;;43.63;38.85;;;35.00;61.00;;;;;;1848700;77;21082;-86
2023/04/23 03:52:18;;;;;;;43.92;38.42;;;35.10;60.90;;;;;;1845300;76;21227;-85
2023/04/23 03:54:49;;;;;;;46.92;38.53;;;35.10;61.10;;;;;;1851342;76;21150;-85
2023/04/23 03:57:20;;;;;;;44.83;37.90;;;35.20;61.40;;;;;;1843660;76;21729;-84
2023/04/23 03:59:51;;;;;;;45.00;37.17;;;35.20;60.90;;;;;;1848190;76;21866;-84
2023/04/23 04:02:22;;;;;;;49.27;38.55;;;35.30;61.40;;;;;;1852544;76;21174;-85
2023/04/23 04:04:54;;;;;;;46.65;37.53;;;35.40;61.40;;;;;;1850483;76;21547;-86
2023/04/23 04:07:25;;;;;;;44.20;37.50;;;35.40;60.60;;;;;;1849209;76;21467;-86
2023/04/23 04:09:56;;;;;;;42.13;37.50;;;35.50;60.20;;;;;;1850217;76;21137;-86
2023/04/23 04:12:28;;;;;;;45.50;37.73;;;35.60;60.10;;;;;;1845971;76;21180;-87
2023/04/23 04:14:59;;;;;;;42.23;36.13;;;35.50;61.00;;;;;;1842920;76;21152;-85
2023/04/23 04:17:30;;;;;;;43.23;38.58;;;35.60;60.00;;;;;;1851183;76;21162;-86
2023/04/23 04:20:01;;;;;;;43.08;37.20;;;35.60;59.80;;;;;;1848362;76;21212;-84
2023/04/23 04:22:32;;;;;;;41.08;36.77;;;35.70;60.00;;;;;;1851524;76;21181;-85
2023/04/23 04:25:04;;;;;;;43.28;38.83;;;35.80;59.90;;;;;;1846506;76;21246;-85
2023/04/23 04:27:35;;;;;;;44.55;37.40;;;35.80;59.80;;;;;;1862224;76;21647;-83
2023/04/23 04:30:07;;;;;;;44.67;37.75;;;35.80;59.50;;;;;;1848863;76;21156;-83
2023/04/23 04:32:39;;;;;;;44.93;37.67;;;35.80;59.30;;;;;;1847759;77;21130;-84
2023/04/23 04:35:13;;;;;;;46.95;40.05;;;35.90;59.40;;;;;;1849475;76;21095;-83
2023/04/23 04:37:43;;;;;;;46.42;41.63;;;36.00;58.90;;;;;;1856448;76;21228;-82
2023/04/23 04:40:14;;;;;;;48.75;41.48;;;36.10;58.30;;;;;;1811017;77;21594;-82
2023/04/23 04:42:45;;;;;;;50.20;41.20;;;36.20;58.00;;;;;;1817194;78;21134;-82
2023/04/23 04:45:17;;;;;;;44.45;38.95;;;36.20;58.00;;;;;;1836609;76;21604;-82
2023/04/23 04:47:48;;;;;;;48.90;40.17;;;36.30;58.30;;;;;;1848956;76;21185;-83
2023/04/23 04:50:19;;;;;;;45.98;39.92;;;36.30;57.80;;;;;;1861061;76;21172;-83
2023/04/23 04:52:50;;;;;;;43.75;39.25;;;36.40;57.50;;;;;;1846027;76;21629;-82
2023/04/23 04:55:21;;;;;;;47.05;38.78;;;36.40;57.30;;;;;;1865081;76;21224;-82
2023/04/23 04:57:52;;;;;;;43.73;38.95;;;36.50;56.70;;;;;;1859579;76;21885;-81
2023/04/23 05:00:27;;;;;;;44.25;39.45;;;36.50;57.00;;;;;;1822129;76;21153;-83
2023/04/23 05:02:59;;;;;;;45.25;38.40;;;36.60;56.70;;;;;;1863702;76;21099;-83
2023/04/23 05:05:30;;;;;;;43.10;38.42;;;36.60;56.60;;;;;;1842666;77;21133;-84
2023/04/23 05:08:04;;;;;;;43.78;37.88;;;36.70;56.70;;;;;;1852697;77;21082;-82
2023/04/23 05:10:35;;;;;;;43.98;39.25;;;36.70;56.50;;;;;;1852523;77;21618;-81
2023/04/23 05:13:06;;;;;;;47.48;38.35;;;36.80;57.30;;;;;;1853122;76;21151;-82
2023/04/23 05:15:37;;;;;;;44.13;38.95;;;36.80;57.50;;;;;;1872113;76;21165;-81
2023/04/23 05:18:09;;;;;;;43.30;38.45;;;36.80;57.40;;;;;;1876426;76;21087;-81
2023/04/23 05:20:41;;;;;;;43.45;37.73;;;36.80;57.40;;;;;;1879889;76;21059;-81
2023/04/23 05:23:12;;;;;;;42.88;38.25;;;36.80;57.10;;;;;;1860112;76;21218;-81
2023/04/23 05:25:43;;;;;;;45.73;38.02;;;36.80;57.30;;;;;;1860358;76;21299;-81
2023/04/23 05:28:14;;;;;;;44.60;38.33;;;36.80;57.30;;;;;;1869352;76;21701;-81
2023/04/23 05:30:46;;;;;;;42.10;37.60;;;36.90;57.40;;;;;;1848305;76;21179;-80
2023/04/23 05:33:17;;;;;;;44.30;38.33;;;36.90;57.00;;;;;;1879570;76;21587;-82
2023/04/23 05:35:48;;;;;;;45.12;38.38;;;36.80;57.10;;;;;;1848348;76;21137;-82
2023/04/23 05:38:18;;;;;;;45.58;39.92;;;36.70;57.30;;;;;;1873435;74;21672;-81
2023/04/23 05:40:50;;;;;;;43.68;38.95;;;36.60;57.40;;;;;;1855929;76;21566;-83
2023/04/23 05:43:21;;;;;;;43.58;39.03;;;36.60;57.40;;;;;;1841698;76;21126;-82
2023/04/23 05:45:52;;;;;;;46.28;39.10;;;36.50;57.40;;;;;;1810919;78;21833;-82
2023/04/23 05:48:23;;;;;;;42.88;38.33;;;36.50;57.60;;;;;;1855596;76;21604;-82
2023/04/23 05:50:54;;;;;;;42.98;38.78;;;36.50;57.60;;;;;;1856279;76;21668;-83
2023/04/23 05:53:25;;;;;;;45.50;40.90;;;36.50;57.70;;;;;;1848281;76;21227;-83
2023/04/23 05:55:56;;;;;;;44.80;39.70;;;36.50;57.70;;;;;;1849342;76;21257;-81
2023/04/23 05:58:27;;;;;;;45.05;40.15;;;36.60;57.60;;;;;;1844936;76;21086;-81
2023/04/23 06:00:58;;;;;;;42.85;38.30;;;36.70;57.50;;;;;;1850837;74;21069;-83
2023/04/23 06:03:29;;;;;;;46.40;38.05;;;36.80;57.10;;;;;;1854505;74;21478;-84
2023/04/23 06:06:01;;;;;;;43.25;38.55;;;36.90;56.90;;;;;;1850571;76;21244;-83
2023/04/23 06:08:32;;;;;;;40.88;36.53;;;36.90;56.90;;;;;;1870925;76;21158;-84
2023/04/23 06:11:03;;;;;;;47.65;40.70;;;36.80;57.20;;;;;;1835610;76;21127;-83
2023/04/23 06:13:39;;;;;;;43.23;37.90;;;36.80;56.80;;;;;;1860454;76;21506;-83
2023/04/23 06:16:08;;;;;;;44.00;39.38;;;36.80;58.00;;;;;;1858680;76;21123;-84
2023/04/23 06:18:39;;;;;;;44.80;40.03;;;36.90;57.40;;;;;;1858380;76;21813;-83
2023/04/23 06:21:10;;;;;;;44.40;39.35;;;36.90;56.20;;;;;;1869523;76;21141;-82
2023/04/23 06:23:41;;;;;;;43.80;39.20;;;36.90;55.50;;;;;;1860886;76;21106;-83
2023/04/23 06:26:12;;;;;;;43.73;39.15;;;37.00;55.50;;;;;;1825662;77;21122;-84
2023/04/23 06:28:44;;;;;;;42.83;38.38;;;37.10;55.50;;;;;;1831944;76;21701;-83
2023/04/23 06:31:15;;;;;;;42.70;38.33;;;37.10;55.50;;;;;;1876184;76;21149;-83
2023/04/23 06:33:47;;;;;;;43.50;37.53;;;37.00;55.50;;;;;;1849556;76;21610;-82
2023/04/23 06:36:18;;;;;;;41.95;37.70;;;36.90;55.70;;;;;;1868711;76;21127;-82
2023/04/23 06:38:49;;;;;;;44.10;39.50;;;36.80;56.30;;;;;;1851011;75;21133;-82
2023/04/23 06:41:20;;;;;;;45.05;38.65;;;36.80;56.20;;;;;;1869492;75;21148;-84
2023/04/23 06:43:51;;;;;;;43.25;38.48;;;36.80;56.60;;;;;;1880167;75;21706;-82
2023/04/23 06:46:22;;;;;;;42.93;38.13;;;36.80;56.50;;;;;;1871216;75;21115;-82
2023/04/23 06:48:53;;;;;;;42.98;38.45;;;36.90;56.50;;;;;;1863784;75;21233;-83
2023/04/23 06:51:31;;;;;;;41.63;37.28;;;36.90;56.30;;;;;;1863751;75;21610;-84
2023/04/23 06:53:58;;;;;;;42.40;37.67;;;37.00;56.00;;;;;;1853007;75;21091;-83
2023/04/23 06:56:29;;;;;;;43.10;38.67;;;37.00;55.90;;;;;;1845386;77;21595;-83
2023/04/23 06:59:00;;;;;;;42.10;37.15;;;36.90;55.50;;;;;;1874420;75;21052;-83
2023/04/23 07:01:31;;;;;;;43.10;38.88;;;36.80;55.40;;;;;;1871427;75;21172;-82
2023/04/23 07:04:02;;;;;;;42.17;37.73;;;36.80;55.60;;;;;;1871500;75;21119;-82
2023/04/23 07:06:34;;;;;;;43.70;39.13;;;36.70;55.50;;;;;;1873026;75;21117;-81
2023/04/23 07:09:06;;;;;;;43.00;38.67;;;36.70;56.10;;;;;;1859986;75;21186;-83
2023/04/23 07:11:37;;;;;;;42.73;37.70;;;36.70;56.20;;;;;;1849231;75;21202;-83
2023/04/23 07:14:08;;;;;;;43.25;38.60;;;36.60;55.90;;;;;;1869262;75;21134;-83
2023/04/23 07:16:39;;;;;;;42.60;38.05;;;36.60;56.10;;;;;;1876190;75;21064;-82
2023/04/23 07:19:10;;;;;;;42.35;37.33;;;36.60;56.00;;;;;;1875921;75;21201;-82
2023/04/23 07:21:41;;;;;;;43.20;37.58;;;36.60;56.00;;;;;;1861844;75;21217;-81
2023/04/23 07:24:12;;;;;;;42.95;38.45;;;36.60;56.10;;;;;;1852211;75;21152;-82
2023/04/23 07:26:43;;;;;;;43.45;37.83;;;36.60;55.80;;;;;;1869145;75;21129;-82
2023/04/23 07:29:14;;;;;;;42.23;37.38;;;36.60;55.80;;;;;;1867285;75;21169;-83
2023/04/23 07:31:45;;;;;;;41.48;37.25;;;36.50;56.00;;;;;;1869890;75;21500;-82
2023/04/23 07:34:16;;;;;;;43.52;38.78;;;36.50;56.20;;;;;;1866201;75;21590;-83
2023/04/23 07:36:48;;;;;;;43.80;39.18;;;36.40;56.30;;;;;;1859659;75;21237;-82
2023/04/23 07:39:19;;;;;;;45.75;40.60;;;36.50;56.70;;;;;;1877864;75;21187;-83
2023/04/23 07:41:50;;;;;;;44.20;39.50;;;36.50;56.90;;;;;;1861682;76;21463;-83
2023/04/23 07:44:21;;;;;;;45.65;40.78;;;36.60;56.80;;;;;;1835336;77;21096;-83
2023/04/23 07:46:52;;;;;;;46.30;39.60;;;36.60;56.60;;;;;;1877914;76;22456;-84
2023/04/23 07:49:42;;;;;;;44.53;39.58;;;36.60;56.70;;;;;;1865419;76;21603;-83
2023/04/23 07:52:15;;;;;;;43.73;39.08;;;36.60;56.20;;;;;;1890454;74;21118;-82
2023/04/23 07:54:46;;;;;;;45.75;40.83;;;36.70;56.40;;;;;;1902479;74;21126;-82
2023/04/23 07:57:17;;;;;;;44.13;39.35;;;36.70;56.30;;;;;;1913503;74;21075;-82
2023/04/23 07:59:48;;;;;;;47.55;42.40;;;36.70;56.00;;;;;;1918458;74;21713;-83
2023/04/23 08:02:22;;;;;;;44.90;40.05;;;36.70;56.50;;;;;;1903703;74;21101;-82
2023/04/23 08:04:52;;;;;;;46.20;41.23;;;36.70;56.70;;;;;;1891558;76;21129;-82
2023/04/23 08:07:24;;;;;;;46.00;41.08;;;36.70;56.60;;;;;;1900356;74;21188;-82
2023/04/23 08:09:57;;;;;;;47.35;42.43;;;36.60;56.20;;;;;;1889294;74;21050;-83
2023/04/23 08:12:29;;;;;;;46.30;40.45;;;36.60;56.50;;;;;;1889207;74;21169;-82
2023/04/23 08:15:00;;;;;;;45.43;40.35;;;36.60;56.20;;;;;;1886366;74;21187;-84
2023/04/23 08:17:31;;;;;;;48.48;40.35;;;36.60;56.30;;;;;;1895116;74;21046;-83
2023/04/23 08:20:05;;;;;;;44.60;40.17;;;36.60;56.40;;;;;;1886998;74;21187;-83
2023/04/23 08:22:36;;;;;;;46.15;41.25;;;36.60;56.50;;;;;;1892629;74;21187;-84
2023/04/23 08:25:08;;;;;;;49.70;40.48;;;36.60;56.60;;;;;;1890746;74;21129;-82
2023/04/23 08:27:39;;;;;;;46.00;40.78;;;36.60;56.30;;;;;;1887338;74;21146;-82
2023/04/23 08:30:10;;;;;;;46.08;41.23;;;36.70;56.20;;;;;;1890351;76;21598;-81
2023/04/23 08:32:41;;;;;;;45.92;41.33;;;36.70;56.40;;;;;;1891264;76;21553;-83
2023/04/23 08:35:12;;;;;;;46.30;41.60;;;36.70;56.60;;;;;;1896827;74;21113;-82
2023/04/23 08:37:43;;;;;;;46.88;41.90;;;36.70;56.60;;;;;;1903682;74;21147;-82
2023/04/23 08:40:15;;;;;;;46.48;41.35;;;36.60;57.10;;;;;;1855365;76;21146;-83
2023/04/23 08:42:49;;;;;;;47.10;42.25;;;36.60;56.40;;;;;;1871231;76;21202;-83
2023/04/23 08:45:21;;;;;;;44.67;39.63;;;36.60;56.70;;;;;;1839902;77;21201;-83
2023/04/23 08:47:53;;;;;;;47.90;41.83;;;36.50;56.70;;;;;;1822349;78;21236;-84
2023/04/23 08:50:25;;;;;;;54.38;45.67;;;36.40;56.70;;;;;;1824918;78;21183;-83
2023/04/23 08:52:57;;;;;;;48.90;43.25;;;36.40;57.20;;;;;;1816670;79;21231;-82
2023/04/23 08:55:28;;;;;;;47.60;42.45;;;36.30;57.30;;;;;;1787818;80;21151;-81
2023/04/23 08:58:01;;;;;;;48.73;43.35;;;36.30;57.70;;;;;;1822886;77;21139;-82
2023/04/23 09:00:34;;;;;;;46.60;42.00;;;36.20;57.80;;;;;;1819948;77;21143;-83
2023/04/23 09:03:05;;;;;;;48.25;43.02;;;36.20;57.60;;;;;;1818935;77;21234;-82
2023/04/23 09:05:37;;;;;;;47.38;42.27;;;36.10;57.60;;;;;;1819081;77;21389;-84
2023/04/23 09:08:08;;;;;;;47.95;40.92;;;36.10;57.10;;;;;;1834754;77;21181;-74
2023/04/23 09:10:42;;;;;;;47.03;41.77;;;36.10;57.00;;;;;;1877073;75;21246;-75
2023/04/23 09:13:14;;;;;;;49.67;44.50;;;36.00;57.10;;;;;;1874365;75;21148;-75
2023/04/23 09:15:45;;;;;;;49.25;41.98;;;36.00;57.00;;;;;;1876650;76;21154;-74
2023/04/23 09:18:17;;;;;;;43.78;39.18;;;36.00;57.40;;;;;;1876780;76;21223;-75
2023/04/23 09:20:49;;;;;;;43.85;39.25;;;36.00;57.10;;;;;;1875037;76;21211;-75
2023/04/23 09:23:23;;;;;;;44.93;40.10;;;36.00;57.00;;;;;;1876436;75;21078;-76
2023/04/23 09:25:55;;;;;;;45.50;40.63;;;36.00;57.30;;;;;;1867469;75;21581;-76
2023/04/23 09:28:37;;;;;;;45.12;40.33;;;35.90;57.50;;;;;;1872299;75;21557;-75
2023/04/23 09:31:09;;;;;;;46.20;41.15;;;35.90;57.60;;;;;;1876478;75;21149;-75
2023/04/23 09:33:40;;;;;;;45.63;40.65;;;36.00;58.70;;;;;;1876824;75;21103;-74
2023/04/23 09:36:13;;;;;;;47.55;42.45;;;35.90;57.90;;;;;;1874121;76;21154;-75
2023/04/23 09:38:44;;;;;;;49.58;42.83;;;35.90;57.90;;;;;;1820948;79;21226;-75
2023/04/23 09:41:25;;;;;;;45.78;40.83;;;35.90;57.90;;;;;;1782496;79;21141;-75
2023/04/23 09:43:57;;;;;;;47.50;42.48;;;35.90;58.10;;;;;;1818203;79;21147;-78
2023/04/23 09:46:42;;;;;;;55.55;44.85;;;35.90;58.40;;;;;;1789178;79;21803;-76
2023/04/23 09:49:15;;;;;;;48.42;41.37;;;35.90;59.20;;;;;;1797584;79;21222;-75
2023/04/23 09:51:47;;;;;;;47.70;42.15;;;35.90;58.20;;;;;;1817687;77;21689;-76
2023/04/23 09:54:24;;;;;;;45.38;40.50;;;35.80;58.20;;;;;;1797740;79;21107;-76
2023/04/23 09:57:01;;;;;;;54.58;45.05;;;35.90;58.30;;;;;;1841925;77;21206;-75
2023/04/23 09:59:29;;;;;;;46.85;42.00;;;35.80;58.50;;;;;;1865212;75;21075;-75
2023/04/23 10:02:04;;;;;;;54.15;48.40;;;35.80;58.50;;;;;;1881079;75;21782;-75
2023/04/23 10:04:35;;;;;;;53.02;47.20;;;35.80;58.60;;;;;;1887531;75;21150;-74
2023/04/23 10:07:12;;;;;;;48.48;43.48;;;35.90;58.60;;;;;;1899763;75;21500;-75
2023/04/23 10:09:42;;;;;;;50.35;44.73;;;35.90;59.00;;;;;;1883901;75;21172;-76
2023/04/23 10:12:14;;;;;;;49.83;42.30;;;35.90;59.00;;;;;;1893667;75;21107;-76
2023/04/23 10:14:49;;;;;;;45.60;40.70;;;35.90;58.70;;;;;;1892075;75;21136;-76
2023/04/23 10:17:21;;;;;;;44.63;39.23;;;35.90;58.80;;;;;;1890795;75;21118;-77
2023/04/23 10:19:53;;;;;;;47.23;40.10;;;35.90;58.90;;;;;;1893219;75;21124;-77
2023/04/23 10:22:27;;;;;;;47.95;42.75;;;35.90;58.90;;;;;;1889532;75;21123;-76
2023/04/23 10:25:00;;;;;;;46.68;41.83;;;35.80;59.00;;;;;;1891177;75;21238;-77
2023/04/23 10:27:33;;;;;;;45.60;40.00;;;35.80;59.10;;;;;;1882329;75;21078;-77
2023/04/23 10:30:07;;;;;;;47.05;40.95;;;35.80;59.10;;;;;;1883452;75;21129;-76
2023/04/23 10:32:39;;;;;;;47.83;42.60;;;35.80;59.30;;;;;;1877959;75;21160;-76
2023/04/23 10:35:10;;;;;;;47.10;41.30;;;35.70;59.30;;;;;;1859632;76;21590;-75
2023/04/23 10:37:43;;;;;;;51.58;45.83;;;35.70;59.60;;;;;;1870151;75;21231;-79
2023/04/23 10:40:16;;;;;;;46.55;41.58;;;35.80;59.60;;;;;;1899507;75;21220;-75
2023/04/23 10:42:48;;;;;;;52.80;41.10;;;35.70;59.10;;;;;;1879523;75;21144;-75
2023/04/23 10:45:21;;;;;;;55.58;46.45;;;35.70;59.10;;;;;;1890772;75;21087;-74
2023/04/23 10:47:54;;;;;;;48.75;43.50;;;35.70;59.10;;;;;;1873455;75;21655;-77
2023/04/23 10:50:28;;;;;;;49.05;43.83;;;35.70;59.30;;;;;;1877218;76;21805;-75
2023/04/23 10:53:01;;;;;;;54.42;46.08;;;35.70;59.20;;;;;;1853208;77;21129;-75
2023/04/23 10:55:33;;;;;;;49.55;43.33;;;35.60;59.40;;;;;;1870568;74;21130;-75
2023/04/23 10:58:06;;;;;;;46.40;41.10;;;35.60;59.30;;;;;;1912566;74;21060;-75
2023/04/23 11:00:45;;;;;;;53.05;45.83;;;35.60;59.00;;;;;;1906223;74;21151;-74
2023/04/23 11:03:38;;;;;;;51.45;44.93;;;35.50;59.90;;;;;;1898076;74;21636;-75
2023/04/23 11:06:16;;;;;;;49.40;44.15;;;35.50;61.00;;;;;;1915511;74;21091;-75
2023/04/23 11:08:55;;;;;;;58.15;46.35;;;35.50;61.10;;;;;;1903682;74;21057;-78
2023/04/23 11:11:40;;;;;;;50.08;41.05;;;35.40;61.00;;;;;;1904879;74;21129;-75
2023/04/23 11:14:15;;;;;;;46.15;40.95;;;35.40;61.00;;;;;;1909220;74;21211;-76
2023/04/23 11:16:47;;;;;;;47.30;40.73;;;35.40;60.90;;;;;;1888961;74;21190;-75
2023/04/23 11:19:18;;;;;;;54.58;43.00;;;35.40;60.70;;;;;;1890472;74;21137;-75
2023/04/23 11:22:11;;;;;;;47.13;41.53;;;35.30;60.60;;;;;;1907245;74;21149;-75
2023/04/23 11:24:44;;;;;;;47.35;41.75;;;35.30;61.00;;;;;;1891862;74;21174;-76
2023/04/23 11:27:19;;;;;;;47.50;42.23;;;35.30;61.10;;;;;;1890621;74;21105;-76
2023/04/23 11:29:50;;;;;;;54.95;45.65;;;35.20;61.30;;;;;;1892011;74;21557;-78
2023/04/23 11:32:23;;;;;;;46.73;41.50;;;35.20;61.70;;;;;;1892032;74;21102;-78
2023/04/23 11:34:56;;;;;;;54.53;45.10;;;35.20;61.50;;;;;;1892988;74;21946;-78
2023/04/23 11:37:28;;;;;;;53.50;44.40;;;35.20;61.10;;;;;;1864073;74;21223;-77
2023/04/23 11:40:02;;;;;;;50.45;42.78;;;35.10;60.80;;;;;;1899608;74;21227;-77
2023/04/23 11:42:33;;;;;;;53.00;44.67;;;35.10;60.70;;;;;;1891642;75;21111;-77
2023/04/23 11:45:04;;;;;;;65.57;53.85;;;35.10;60.90;;;;;;1892174;74;21144;-76
2023/04/23 11:47:36;;;;;;;69.17;53.68;;;35.10;61.50;;;;;;1901695;74;21122;-77
2023/04/23 11:50:08;;;;;;;67.72;54.77;;;35.00;61.40;;;;;;1889118;76;21187;-77
2023/04/23 11:52:40;;;;;;;63.33;52.88;;;35.00;61.60;;;;;;1897958;74;21156;-77
2023/04/23 11:55:12;;;;;;;55.20;46.98;;;35.00;61.80;;;;;;1803848;79;21221;-77
2023/04/23 11:57:44;;;;;;;60.15;46.37;;;35.00;61.60;;;;;;1847623;77;21184;-77
2023/04/23 12:00:17;;;;;;;54.80;43.55;;;34.90;61.60;;;;;;1837503;77;21635;-77
2023/04/23 12:02:59;;;;;;;52.10;45.05;;;34.90;61.90;;;;;;1832586;77;21172;-77
2023/04/23 12:05:42;;;;;;;52.23;44.10;;;34.90;61.90;;;;;;1835107;77;21608;-77
2023/04/23 12:08:19;;;;;;;53.98;44.48;;;34.90;62.10;;;;;;1829308;78;21226;-77
2023/04/23 12:10:54;;;;;;;49.15;43.78;;;34.90;62.30;;;;;;1842064;77;21563;-77
2023/04/23 12:13:28;;;;;;;62.25;46.02;;;34.90;62.30;;;;;;1845997;77;21162;-77
2023/04/23 12:16:04;;;;;;;54.23;46.85;;;34.90;62.30;;;;;;1824539;77;21057;-77
2023/04/23 12:18:38;;;;;;;57.55;48.35;;;34.80;62.40;;;;;;1828851;77;21205;-83
2023/04/23 12:21:11;;;;;;;55.52;44.98;;;34.80;62.70;;;;;;1827849;77;21145;-84
2023/04/23 12:23:48;;;;;;;54.93;45.43;;;34.80;62.70;;;;;;1828664;77;21212;-83
2023/04/23 12:26:16;;;;;;;45.73;38.10;;;34.80;63.50;;;;;;1829633;77;21567;-83
2023/04/23 12:28:55;;;;;;;41.77;30.85;;;34.80;62.30;;;;;;1843985;77;21121;-84
2023/04/23 12:31:27;;;;;;;35.92;27.22;;;34.70;60.20;;;;;;1842765;77;21652;-83
2023/04/23 12:34:07;;;;;;;35.70;27.30;;;34.60;59.80;;;;;;1834060;77;21201;-82
2023/04/23 13:59:48;;;;;;;23.83;19.17;;;30.30;80.10;;;;;;1905227;74;21240;-83
2023/04/23 14:02:21;;;;;;;22.93;19.50;;;30.20;79.60;;;;;;1883400;75;21083;-84
2023/04/23 14:04:52;;;;;;;22.17;19.02;;;30.10;80.20;;;;;;1891313;75;21103;-85
2023/04/23 14:07:24;;;;;;;23.90;18.80;;;29.90;81.30;;;;;;1897483;74;21133;-83
2023/04/23 14:09:55;;;;;;;22.30;18.62;;;29.90;80.30;;;;;;1891670;74;21137;-82
2023/04/23 14:12:28;;;;;;;23.45;18.85;;;29.90;81.10;;;;;;1890131;74;21160;-83
2023/04/23 14:14:59;;;;;;;25.80;19.05;;;29.90;81.80;;;;;;1906608;74;21078;-82
2023/04/23 14:17:32;;;;;;;20.95;17.25;;;29.90;81.60;;;;;;1887991;74;21063;-82